Findley Lake, New York
Current Conditions -  °F | °C
As of 6:51 AM on Friday 19 Dec 2014 (Local Time) from KERI Reporting Station
Overcast Overcast  
Wind Chill: 21°   Ceiling: 1600
Heat Index: 30°   Visibility: 10mi
Dew Point: 23°   Wind: 12mph
Humidity: 75%   Direction: 330°NNW
Pressure: 30.17"   Gusts: 21mph
Location:  42.12°N, 79.73°W
Report Text: KERI 191151Z 33010G18KT 10SM OVC016 M01/M05 A3017 RMK AO2 SLP223 60000 70001 T10111050 10000 21011 53010
Loading
Personal Weather Stations






























Interactive Weather Map New forecast layout! Learn more

10-Day Weather Forecast

Advertisements
Track Severe Weather on mobile